sensor_id;sensor_type;location;lat;lon;timestamp;P1;durP1;ratioP1;P2;durP2;ratioP2
66751;SDS011;53663;42.676;23.238;2024-01-15T00:01:27;35.10;;;17.23;;
66751;SDS011;53663;42.676;23.238;2024-01-15T00:03:52;42.35;;;18.48;;
66751;SDS011;53663;42.676;23.238;2024-01-15T00:06:18;47.20;;;20.73;;
66751;SDS011;53663;42.676;23.238;2024-01-15T00:08:43;46.10;;;20.35;;
66751;SDS011;53663;42.676;23.238;2024-01-15T00:11:09;49.95;;;19.83;;
66751;SDS011;53663;42.676;23.238;2024-01-15T00:13:34;46.20;;;19.42;;
66751;SDS011;53663;42.676;23.238;2024-01-15T00:16:00;51.42;;;21.05;;
66751;SDS011;53663;42.676;23.238;2024-01-15T00:18:25;40.38;;;18.55;;
66751;SDS011;53663;42.676;23.238;2024-01-15T00:20:51;47.03;;;19.88;;
66751;SDS011;53663;42.676;23.238;2024-01-15T00:23:16;40.75;;;19.38;;
66751;SDS011;53663;42.676;23.238;2024-01-15T00:25:41;37.28;;;17.77;;
66751;SDS011;53663;42.676;23.238;2024-01-15T00:28:07;46.85;;;21.80;;
66751;SDS011;53663;42.676;23.238;2024-01-15T00:30:32;54.55;;;22.25;;
66751;SDS011;53663;42.676;23.238;2024-01-15T00:32:58;52.83;;;21.52;;
66751;SDS011;53663;42.676;23.238;2024-01-15T00:35:24;45.13;;;19.98;;
66751;SDS011;53663;42.676;23.238;2024-01-15T00:37:49;42.63;;;18.70;;
66751;SDS011;53663;42.676;23.238;2024-01-15T00:40:14;44.92;;;19.38;;
66751;SDS011;53663;42.676;23.238;2024-01-15T00:42:40;39.63;;;18.10;;
66751;SDS011;53663;42.676;23.238;2024-01-15T00:45:05;48.75;;;18.95;;
66751;SDS011;53663;42.676;23.238;2024-01-15T00:47:33;41.42;;;18.15;;
66751;SDS011;53663;42.676;23.238;2024-01-15T00:49:59;42.83;;;18.83;;
66751;SDS011;53663;42.676;23.238;2024-01-15T00:52:25;43.08;;;19.00;;
66751;SDS011;53663;42.676;23.238;2024-01-15T00:54:50;41.15;;;18.90;;
66751;SDS011;53663;42.676;23.238;2024-01-15T00:57:16;39.13;;;18.02;;
66751;SDS011;53663;42.676;23.238;2024-01-15T00:59:44;40.08;;;17.83;;
66751;SDS011;53663;42.676;23.238;2024-01-15T01:02:10;43.15;;;18.63;;
66751;SDS011;53663;42.676;23.238;2024-01-15T01:04:35;38.95;;;18.08;;
66751;SDS011;53663;42.676;23.238;2024-01-15T01:07:01;44.30;;;18.38;;
66751;SDS011;53663;42.676;23.238;2024-01-15T01:09:26;43.28;;;18.73;;
66751;SDS011;53663;42.676;23.238;2024-01-15T01:11:55;49.78;;;18.90;;
66751;SDS011;53663;42.676;23.238;2024-01-15T01:14:21;50.80;;;19.00;;
66751;SDS011;53663;42.676;23.238;2024-01-15T01:16:46;49.58;;;20.80;;
66751;SDS011;53663;42.676;23.238;2024-01-15T01:19:12;40.88;;;18.67;;
66751;SDS011;53663;42.676;23.238;2024-01-15T01:21:37;40.55;;;18.23;;
66751;SDS011;53663;42.676;23.238;2024-01-15T01:24:03;39.20;;;18.33;;
66751;SDS011;53663;42.676;23.238;2024-01-15T01:26:29;43.58;;;18.08;;
66751;SDS011;53663;42.676;23.238;2024-01-15T01:28:55;38.55;;;17.65;;
66751;SDS011;53663;42.676;23.238;2024-01-15T01:31:20;35.83;;;17.88;;
66751;SDS011;53663;42.676;23.238;2024-01-15T01:33:46;39.17;;;18.10;;
66751;SDS011;53663;42.676;23.238;2024-01-15T01:36:11;39.80;;;18.13;;
66751;SDS011;53663;42.676;23.238;2024-01-15T01:38:37;39.60;;;18.02;;
66751;SDS011;53663;42.676;23.238;2024-01-15T01:41:03;39.13;;;18.23;;
66751;SDS011;53663;42.676;23.238;2024-01-15T01:43:28;37.67;;;17.67;;
66751;SDS011;53663;42.676;23.238;2024-01-15T01:45:54;40.25;;;17.65;;
66751;SDS011;53663;42.676;23.238;2024-01-15T01:48:23;39.42;;;16.17;;
66751;SDS011;53663;42.676;23.238;2024-01-15T01:50:50;38.65;;;17.70;;
66751;SDS011;53663;42.676;23.238;2024-01-15T01:53:16;42.85;;;18.25;;
66751;SDS011;53663;42.676;23.238;2024-01-15T01:55:41;36.30;;;17.08;;
66751;SDS011;53663;42.676;23.238;2024-01-15T01:58:07;41.35;;;18.27;;
66751;SDS011;53663;42.676;23.238;2024-01-15T02:00:33;39.70;;;16.77;;
66751;SDS011;53663;42.676;23.238;2024-01-15T02:02:59;42.55;;;16.48;;
66751;SDS011;53663;42.676;23.238;2024-01-15T02:05:25;41.72;;;17.00;;
66751;SDS011;53663;42.676;23.238;2024-01-15T02:07:52;36.25;;;17.05;;
66751;SDS011;53663;42.676;23.238;2024-01-15T02:10:17;39.33;;;18.20;;
66751;SDS011;53663;42.676;23.238;2024-01-15T02:12:43;47.53;;;19.58;;
66751;SDS011;53663;42.676;23.238;2024-01-15T02:15:09;42.40;;;18.63;;
66751;SDS011;53663;42.676;23.238;2024-01-15T02:17:34;38.85;;;17.65;;
66751;SDS011;53663;42.676;23.238;2024-01-15T02:20:00;40.92;;;17.70;;
66751;SDS011;53663;42.676;23.238;2024-01-15T02:22:26;40.70;;;17.17;;
66751;SDS011;53663;42.676;23.238;2024-01-15T02:24:51;46.05;;;16.80;;
66751;SDS011;53663;42.676;23.238;2024-01-15T02:27:17;35.63;;;16.95;;
66751;SDS011;53663;42.676;23.238;2024-01-15T02:29:42;38.20;;;16.80;;
66751;SDS011;53663;42.676;23.238;2024-01-15T02:32:08;37.20;;;16.48;;
66751;SDS011;53663;42.676;23.238;2024-01-15T02:34:34;44.03;;;15.88;;
66751;SDS011;53663;42.676;23.238;2024-01-15T02:37:00;41.15;;;17.00;;
66751;SDS011;53663;42.676;23.238;2024-01-15T02:39:25;35.08;;;16.08;;
66751;SDS011;53663;42.676;23.238;2024-01-15T02:41:51;41.15;;;16.83;;
66751;SDS011;53663;42.676;23.238;2024-01-15T02:44:16;43.67;;;18.55;;
66751;SDS011;53663;42.676;23.238;2024-01-15T02:46:42;47.75;;;18.52;;
66751;SDS011;53663;42.676;23.238;2024-01-15T02:49:07;41.97;;;17.52;;
66751;SDS011;53663;42.676;23.238;2024-01-15T02:51:33;33.20;;;15.10;;
66751;SDS011;53663;42.676;23.238;2024-01-15T02:54:00;34.17;;;15.25;;
66751;SDS011;53663;42.676;23.238;2024-01-15T02:56:25;40.03;;;16.15;;
66751;SDS011;53663;42.676;23.238;2024-01-15T02:58:51;40.58;;;17.98;;
66751;SDS011;53663;42.676;23.238;2024-01-15T03:01:18;34.38;;;16.67;;
66751;SDS011;53663;42.676;23.238;2024-01-15T03:03:44;40.50;;;16.65;;
66751;SDS011;53663;42.676;23.238;2024-01-15T03:06:10;38.30;;;16.55;;
66751;SDS011;53663;42.676;23.238;2024-01-15T03:08:35;45.15;;;18.98;;
66751;SDS011;53663;42.676;23.238;2024-01-15T03:11:06;45.03;;;19.48;;
66751;SDS011;53663;42.676;23.238;2024-01-15T03:13:35;46.92;;;18.65;;
66751;SDS011;53663;42.676;23.238;2024-01-15T03:16:07;40.88;;;16.75;;
66751;SDS011;53663;42.676;23.238;2024-01-15T03:18:33;47.58;;;20.73;;
66751;SDS011;53663;42.676;23.238;2024-01-15T03:20:58;36.42;;;17.83;;
66751;SDS011;53663;42.676;23.238;2024-01-15T03:23:26;48.92;;;19.95;;
66751;SDS011;53663;42.676;23.238;2024-01-15T03:25:52;42.60;;;20.60;;
66751;SDS011;53663;42.676;23.238;2024-01-15T03:28:17;41.63;;;18.33;;
66751;SDS011;53663;42.676;23.238;2024-01-15T03:30:42;37.95;;;17.45;;
66751;SDS011;53663;42.676;23.238;2024-01-15T03:33:08;36.05;;;16.15;;
66751;SDS011;53663;42.676;23.238;2024-01-15T03:35:33;34.30;;;16.80;;
66751;SDS011;53663;42.676;23.238;2024-01-15T03:38:00;33.72;;;17.00;;
66751;SDS011;53663;42.676;23.238;2024-01-15T03:40:26;45.03;;;17.00;;
66751;SDS011;53663;42.676;23.238;2024-01-15T03:42:51;27.33;;;13.50;;
66751;SDS011;53663;42.676;23.238;2024-01-15T03:45:18;27.70;;;13.68;;
66751;SDS011;53663;42.676;23.238;2024-01-15T03:47:43;28.58;;;13.70;;
66751;SDS011;53663;42.676;23.238;2024-01-15T03:50:09;41.22;;;14.38;;
66751;SDS011;53663;42.676;23.238;2024-01-15T03:52:34;29.40;;;13.65;;
66751;SDS011;53663;42.676;23.238;2024-01-15T03:55:00;32.28;;;14.00;;
66751;SDS011;53663;42.676;23.238;2024-01-15T03:57:25;26.50;;;12.70;;
66751;SDS011;53663;42.676;23.238;2024-01-15T03:59:51;25.65;;;12.80;;
66751;SDS011;53663;42.676;23.238;2024-01-15T04:02:18;28.77;;;14.10;;
66751;SDS011;53663;42.676;23.238;2024-01-15T04:04:44;25.35;;;14.23;;
66751;SDS011;53663;42.676;23.238;2024-01-15T04:07:10;30.80;;;15.15;;
66751;SDS011;53663;42.676;23.238;2024-01-15T04:09:35;29.50;;;14.27;;
66751;SDS011;53663;42.676;23.238;2024-01-15T04:12:01;35.20;;;14.40;;
66751;SDS011;53663;42.676;23.238;2024-01-15T04:14:26;32.20;;;14.15;;
66751;SDS011;53663;42.676;23.238;2024-01-15T04:16:52;29.35;;;13.68;;
66751;SDS011;53663;42.676;23.238;2024-01-15T04:19:17;38.33;;;15.13;;
66751;SDS011;53663;42.676;23.238;2024-01-15T04:21:43;34.72;;;13.93;;
66751;SDS011;53663;42.676;23.238;2024-01-15T04:24:08;35.00;;;13.98;;
66751;SDS011;53663;42.676;23.238;2024-01-15T04:26:34;33.40;;;15.52;;
66751;SDS011;53663;42.676;23.238;2024-01-15T04:28:59;32.65;;;14.55;;
66751;SDS011;53663;42.676;23.238;2024-01-15T04:31:25;32.67;;;16.60;;
66751;SDS011;53663;42.676;23.238;2024-01-15T04:33:52;35.30;;;17.08;;
66751;SDS011;53663;42.676;23.238;2024-01-15T04:36:18;50.22;;;18.98;;
66751;SDS011;53663;42.676;23.238;2024-01-15T04:38:43;37.47;;;17.17;;
66751;SDS011;53663;42.676;23.238;2024-01-15T04:41:12;44.90;;;17.77;;
66751;SDS011;53663;42.676;23.238;2024-01-15T04:43:38;42.92;;;19.13;;
66751;SDS011;53663;42.676;23.238;2024-01-15T04:46:05;47.30;;;18.73;;
66751;SDS011;53663;42.676;23.238;2024-01-15T04:48:32;46.17;;;19.10;;
66751;SDS011;53663;42.676;23.238;2024-01-15T04:50:57;33.42;;;15.40;;
66751;SDS011;53663;42.676;23.238;2024-01-15T04:53:23;37.95;;;15.50;;
66751;SDS011;53663;42.676;23.238;2024-01-15T04:55:48;31.02;;;14.75;;
66751;SDS011;53663;42.676;23.238;2024-01-15T04:58:14;31.33;;;13.95;;
66751;SDS011;53663;42.676;23.238;2024-01-15T05:00:39;30.27;;;13.18;;
66751;SDS011;53663;42.676;23.238;2024-01-15T05:03:05;33.50;;;13.52;;
66751;SDS011;53663;42.676;23.238;2024-01-15T05:05:30;34.42;;;14.02;;
66751;SDS011;53663;42.676;23.238;2024-01-15T05:07:56;25.67;;;13.45;;
66751;SDS011;53663;42.676;23.238;2024-01-15T05:10:21;36.75;;;14.95;;
66751;SDS011;53663;42.676;23.238;2024-01-15T05:12:46;31.05;;;13.75;;
66751;SDS011;53663;42.676;23.238;2024-01-15T05:15:12;30.88;;;13.50;;
66751;SDS011;53663;42.676;23.238;2024-01-15T05:17:38;33.10;;;13.38;;
66751;SDS011;53663;42.676;23.238;2024-01-15T05:20:03;37.25;;;14.55;;
66751;SDS011;53663;42.676;23.238;2024-01-15T05:22:30;43.63;;;20.38;;
66751;SDS011;53663;42.676;23.238;2024-01-15T05:24:55;53.15;;;23.40;;
66751;SDS011;53663;42.676;23.238;2024-01-15T05:27:20;49.58;;;21.90;;
66751;SDS011;53663;42.676;23.238;2024-01-15T05:29:46;54.05;;;21.75;;
66751;SDS011;53663;42.676;23.238;2024-01-15T05:32:11;52.92;;;22.20;;
66751;SDS011;53663;42.676;23.238;2024-01-15T05:34:37;41.75;;;18.13;;
66751;SDS011;53663;42.676;23.238;2024-01-15T05:37:02;47.80;;;19.88;;
66751;SDS011;53663;42.676;23.238;2024-01-15T05:39:28;40.53;;;18.73;;
66751;SDS011;53663;42.676;23.238;2024-01-15T05:41:53;39.60;;;17.73;;
66751;SDS011;53663;42.676;23.238;2024-01-15T05:44:19;33.35;;;13.88;;
66751;SDS011;53663;42.676;23.238;2024-01-15T05:46:45;33.97;;;15.85;;
66751;SDS011;53663;42.676;23.238;2024-01-15T05:49:10;30.55;;;14.98;;
66751;SDS011;53663;42.676;23.238;2024-01-15T05:51:36;32.50;;;14.68;;
66751;SDS011;53663;42.676;23.238;2024-01-15T05:54:01;28.92;;;14.18;;
66751;SDS011;53663;42.676;23.238;2024-01-15T05:56:27;34.72;;;14.05;;
66751;SDS011;53663;42.676;23.238;2024-01-15T05:58:52;29.65;;;13.13;;
66751;SDS011;53663;42.676;23.238;2024-01-15T06:01:18;30.90;;;14.80;;
66751;SDS011;53663;42.676;23.238;2024-01-15T06:03:43;29.92;;;13.73;;
66751;SDS011;53663;42.676;23.238;2024-01-15T06:06:09;28.50;;;14.07;;
66751;SDS011;53663;42.676;23.238;2024-01-15T06:08:34;27.60;;;13.05;;
66751;SDS011;53663;42.676;23.238;2024-01-15T06:11:00;26.27;;;13.65;;
66751;SDS011;53663;42.676;23.238;2024-01-15T06:13:25;29.05;;;13.77;;
66751;SDS011;53663;42.676;23.238;2024-01-15T06:15:51;35.00;;;13.77;;
66751;SDS011;53663;42.676;23.238;2024-01-15T06:18:16;27.90;;;14.15;;
66751;SDS011;53663;42.676;23.238;2024-01-15T06:20:42;37.22;;;15.05;;
66751;SDS011;53663;42.676;23.238;2024-01-15T06:23:07;30.17;;;14.82;;
66751;SDS011;53663;42.676;23.238;2024-01-15T06:25:33;38.47;;;17.70;;
66751;SDS011;53663;42.676;23.238;2024-01-15T06:27:58;38.17;;;18.08;;
66751;SDS011;53663;42.676;23.238;2024-01-15T06:30:24;40.88;;;18.50;;
66751;SDS011;53663;42.676;23.238;2024-01-15T06:32:50;38.72;;;16.77;;
66751;SDS011;53663;42.676;23.238;2024-01-15T06:35:15;53.08;;;19.13;;
66751;SDS011;53663;42.676;23.238;2024-01-15T06:37:41;42.47;;;17.63;;
66751;SDS011;53663;42.676;23.238;2024-01-15T06:40:06;40.33;;;17.52;;
66751;SDS011;53663;42.676;23.238;2024-01-15T06:42:33;44.53;;;19.50;;
66751;SDS011;53663;42.676;23.238;2024-01-15T06:44:58;44.08;;;19.15;;
66751;SDS011;53663;42.676;23.238;2024-01-15T06:47:24;47.83;;;20.05;;
66751;SDS011;53663;42.676;23.238;2024-01-15T06:49:49;37.88;;;16.92;;
66751;SDS011;53663;42.676;23.238;2024-01-15T06:52:17;39.90;;;17.48;;
66751;SDS011;53663;42.676;23.238;2024-01-15T06:54:42;37.50;;;18.08;;
66751;SDS011;53663;42.676;23.238;2024-01-15T06:57:08;45.83;;;19.75;;
66751;SDS011;53663;42.676;23.238;2024-01-15T06:59:34;39.00;;;18.17;;
66751;SDS011;53663;42.676;23.238;2024-01-15T07:02:02;37.70;;;18.05;;
66751;SDS011;53663;42.676;23.238;2024-01-15T07:04:28;41.30;;;17.60;;
66751;SDS011;53663;42.676;23.238;2024-01-15T07:06:53;34.85;;;17.25;;
66751;SDS011;53663;42.676;23.238;2024-01-15T07:09:19;41.38;;;17.48;;
66751;SDS011;53663;42.676;23.238;2024-01-15T07:11:44;51.55;;;19.75;;
66751;SDS011;53663;42.676;23.238;2024-01-15T07:14:11;38.38;;;18.25;;
66751;SDS011;53663;42.676;23.238;2024-01-15T07:16:37;37.47;;;15.88;;
66751;SDS011;53663;42.676;23.238;2024-01-15T07:19:02;43.50;;;20.55;;
66751;SDS011;53663;42.676;23.238;2024-01-15T07:21:28;42.67;;;17.58;;
66751;SDS011;53663;42.676;23.238;2024-01-15T07:23:55;39.85;;;18.17;;
66751;SDS011;53663;42.676;23.238;2024-01-15T07:26:20;39.85;;;18.13;;
66751;SDS011;53663;42.676;23.238;2024-01-15T07:28:46;40.22;;;18.42;;
66751;SDS011;53663;42.676;23.238;2024-01-15T07:31:12;44.45;;;18.08;;
66751;SDS011;53663;42.676;23.238;2024-01-15T07:33:37;51.83;;;26.85;;
66751;SDS011;53663;42.676;23.238;2024-01-15T07:36:03;43.80;;;20.95;;
66751;SDS011;53663;42.676;23.238;2024-01-15T07:38:29;34.90;;;16.67;;
66751;SDS011;53663;42.676;23.238;2024-01-15T07:40:54;40.72;;;17.33;;
66751;SDS011;53663;42.676;23.238;2024-01-15T07:43:20;35.85;;;19.58;;
66751;SDS011;53663;42.676;23.238;2024-01-15T07:45:45;45.90;;;19.67;;
66751;SDS011;53663;42.676;23.238;2024-01-15T07:48:11;53.35;;;23.67;;
66751;SDS011;53663;42.676;23.238;2024-01-15T07:50:37;48.70;;;20.85;;
66751;SDS011;53663;42.676;23.238;2024-01-15T07:53:02;47.25;;;19.45;;
66751;SDS011;53663;42.676;23.238;2024-01-15T07:55:29;39.83;;;19.35;;
66751;SDS011;53663;42.676;23.238;2024-01-15T07:57:54;40.90;;;20.60;;
66751;SDS011;53663;42.676;23.238;2024-01-15T08:00:23;46.88;;;21.65;;
66751;SDS011;53663;42.676;23.238;2024-01-15T08:02:49;45.97;;;21.40;;
66751;SDS011;53663;42.676;23.238;2024-01-15T08:05:16;37.03;;;18.70;;
66751;SDS011;53663;42.676;23.238;2024-01-15T08:07:42;44.38;;;19.70;;
66751;SDS011;53663;42.676;23.238;2024-01-15T08:10:07;43.13;;;19.67;;
66751;SDS011;53663;42.676;23.238;2024-01-15T08:12:33;50.28;;;21.25;;
66751;SDS011;53663;42.676;23.238;2024-01-15T08:14:58;41.72;;;18.10;;
66751;SDS011;53663;42.676;23.238;2024-01-15T08:17:24;29.80;;;16.10;;
66751;SDS011;53663;42.676;23.238;2024-01-15T08:19:53;38.58;;;17.50;;
66751;SDS011;53663;42.676;23.238;2024-01-15T08:22:19;34.13;;;17.17;;
66751;SDS011;53663;42.676;23.238;2024-01-15T08:24:45;39.15;;;17.73;;
66751;SDS011;53663;42.676;23.238;2024-01-15T08:27:10;39.70;;;19.45;;
66751;SDS011;53663;42.676;23.238;2024-01-15T08:29:36;51.60;;;24.75;;
66751;SDS011;53663;42.676;23.238;2024-01-15T08:32:02;42.35;;;21.05;;
66751;SDS011;53663;42.676;23.238;2024-01-15T08:34:27;59.70;;;27.27;;
66751;SDS011;53663;42.676;23.238;2024-01-15T08:36:53;49.40;;;23.58;;
66751;SDS011;53663;42.676;23.238;2024-01-15T08:39:19;50.28;;;25.17;;
66751;SDS011;53663;42.676;23.238;2024-01-15T08:41:44;51.85;;;25.48;;
66751;SDS011;53663;42.676;23.238;2024-01-15T08:44:11;54.20;;;26.98;;
66751;SDS011;53663;42.676;23.238;2024-01-15T08:46:38;57.13;;;28.65;;
66751;SDS011;53663;42.676;23.238;2024-01-15T08:49:03;59.53;;;28.65;;
66751;SDS011;53663;42.676;23.238;2024-01-15T08:51:29;62.35;;;27.13;;
66751;SDS011;53663;42.676;23.238;2024-01-15T08:53:55;51.60;;;25.73;;
66751;SDS011;53663;42.676;23.238;2024-01-15T08:56:21;49.80;;;24.85;;
66751;SDS011;53663;42.676;23.238;2024-01-15T08:58:47;57.67;;;26.52;;
66751;SDS011;53663;42.676;23.238;2024-01-15T09:01:12;41.47;;;22.55;;
66751;SDS011;53663;42.676;23.238;2024-01-15T09:03:39;52.38;;;24.38;;
66751;SDS011;53663;42.676;23.238;2024-01-15T09:06:06;42.58;;;21.48;;
66751;SDS011;53663;42.676;23.238;2024-01-15T09:08:32;41.88;;;20.88;;
66751;SDS011;53663;42.676;23.238;2024-01-15T09:10:58;30.73;;;17.42;;
66751;SDS011;53663;42.676;23.238;2024-01-15T09:13:23;31.60;;;18.13;;
66751;SDS011;53663;42.676;23.238;2024-01-15T09:15:49;31.05;;;19.20;;
66751;SDS011;53663;42.676;23.238;2024-01-15T09:18:14;21.48;;;13.77;;
66751;SDS011;53663;42.676;23.238;2024-01-15T09:20:40;29.92;;;17.23;;
66751;SDS011;53663;42.676;23.238;2024-01-15T09:23:05;35.83;;;19.92;;
66751;SDS011;53663;42.676;23.238;2024-01-15T09:25:31;34.78;;;20.00;;
66751;SDS011;53663;42.676;23.238;2024-01-15T09:27:56;32.08;;;18.38;;
66751;SDS011;53663;42.676;23.238;2024-01-15T09:30:22;42.63;;;23.10;;
66751;SDS011;53663;42.676;23.238;2024-01-15T09:32:47;26.63;;;16.48;;
66751;SDS011;53663;42.676;23.238;2024-01-15T09:35:13;24.63;;;15.23;;
66751;SDS011;53663;42.676;23.238;2024-01-15T09:37:39;104.30;;;50.15;;
66751;SDS011;53663;42.676;23.238;2024-01-15T09:40:05;37.72;;;19.27;;
66751;SDS011;53663;42.676;23.238;2024-01-15T09:42:31;46.28;;;23.05;;
66751;SDS011;53663;42.676;23.238;2024-01-15T09:44:58;30.52;;;17.58;;
66751;SDS011;53663;42.676;23.238;2024-01-15T09:47:24;47.67;;;25.35;;
66751;SDS011;53663;42.676;23.238;2024-01-15T09:49:50;46.35;;;26.30;;
66751;SDS011;53663;42.676;23.238;2024-01-15T09:52:15;35.20;;;19.60;;
66751;SDS011;53663;42.676;23.238;2024-01-15T09:54:43;38.65;;;24.02;;
66751;SDS011;53663;42.676;23.238;2024-01-15T09:57:10;35.38;;;19.45;;
66751;SDS011;53663;42.676;23.238;2024-01-15T09:59:36;79.43;;;50.33;;
66751;SDS011;53663;42.676;23.238;2024-01-15T10:02:03;30.80;;;18.95;;
66751;SDS011;53663;42.676;23.238;2024-01-15T10:04:29;35.45;;;20.98;;
66751;SDS011;53663;42.676;23.238;2024-01-15T10:06:54;42.80;;;24.55;;
66751;SDS011;53663;42.676;23.238;2024-01-15T10:09:22;28.55;;;18.23;;
66751;SDS011;53663;42.676;23.238;2024-01-15T10:11:48;22.00;;;15.30;;
66751;SDS011;53663;42.676;23.238;2024-01-15T10:14:14;39.85;;;18.48;;
66751;SDS011;53663;42.676;23.238;2024-01-15T10:16:39;34.63;;;19.92;;
66751;SDS011;53663;42.676;23.238;2024-01-15T10:19:08;38.70;;;22.52;;
66751;SDS011;53663;42.676;23.238;2024-01-15T10:21:34;52.65;;;30.30;;
66751;SDS011;53663;42.676;23.238;2024-01-15T10:24:01;52.08;;;32.78;;
66751;SDS011;53663;42.676;23.238;2024-01-15T10:26:28;53.58;;;32.65;;
66751;SDS011;53663;42.676;23.238;2024-01-15T10:28:54;67.40;;;39.97;;
66751;SDS011;53663;42.676;23.238;2024-01-15T10:31:19;68.88;;;38.97;;
66751;SDS011;53663;42.676;23.238;2024-01-15T10:33:49;58.58;;;34.00;;
66751;SDS011;53663;42.676;23.238;2024-01-15T10:36:15;65.20;;;37.80;;
66751;SDS011;53663;42.676;23.238;2024-01-15T10:38:41;66.45;;;36.53;;
66751;SDS011;53663;42.676;23.238;2024-01-15T10:41:08;58.38;;;33.58;;
66751;SDS011;53663;42.676;23.238;2024-01-15T10:43:33;65.72;;;32.63;;
66751;SDS011;53663;42.676;23.238;2024-01-15T10:45:59;56.97;;;33.38;;
66751;SDS011;53663;42.676;23.238;2024-01-15T10:48:25;61.70;;;30.67;;
66751;SDS011;53663;42.676;23.238;2024-01-15T10:50:53;57.22;;;32.03;;
66751;SDS011;53663;42.676;23.238;2024-01-15T10:53:19;57.47;;;31.15;;
66751;SDS011;53663;42.676;23.238;2024-01-15T10:55:46;61.03;;;31.10;;
66751;SDS011;53663;42.676;23.238;2024-01-15T10:58:14;61.38;;;31.65;;
66751;SDS011;53663;42.676;23.238;2024-01-15T11:00:41;58.42;;;30.10;;
66751;SDS011;53663;42.676;23.238;2024-01-15T11:03:06;59.25;;;30.23;;
66751;SDS011;53663;42.676;23.238;2024-01-15T11:05:33;64.00;;;32.22;;
66751;SDS011;53663;42.676;23.238;2024-01-15T11:08:01;41.70;;;22.63;;
66751;SDS011;53663;42.676;23.238;2024-01-15T11:10:40;40.97;;;20.45;;
66751;SDS011;53663;42.676;23.238;2024-01-15T11:13:10;34.83;;;20.83;;
66751;SDS011;53663;42.676;23.238;2024-01-15T11:15:56;36.53;;;20.75;;
66751;SDS011;53663;42.676;23.238;2024-01-15T11:18:26;36.22;;;21.08;;
66751;SDS011;53663;42.676;23.238;2024-01-15T11:23:43;32.20;;;19.17;;
66751;SDS011;53663;42.676;23.238;2024-01-15T11:26:30;36.25;;;19.90;;
66751;SDS011;53663;42.676;23.238;2024-01-15T11:28:56;66.30;;;33.85;;
66751;SDS011;53663;42.676;23.238;2024-01-15T11:31:27;36.70;;;19.13;;
66751;SDS011;53663;42.676;23.238;2024-01-15T11:34:09;42.30;;;20.23;;
66751;SDS011;53663;42.676;23.238;2024-01-15T11:39:47;33.78;;;19.63;;
66751;SDS011;53663;42.676;23.238;2024-01-15T11:42:08;35.78;;;19.80;;
66751;SDS011;53663;42.676;23.238;2024-01-15T11:44:34;33.50;;;18.02;;
66751;SDS011;53663;42.676;23.238;2024-01-15T11:47:01;36.90;;;18.38;;
66751;SDS011;53663;42.676;23.238;2024-01-15T11:52:18;34.50;;;17.17;;
66751;SDS011;53663;42.676;23.238;2024-01-15T11:54:49;36.67;;;16.02;;
66751;SDS011;53663;42.676;23.238;2024-01-15T11:57:18;32.25;;;17.27;;
66751;SDS011;53663;42.676;23.238;2024-01-15T11:59:50;39.60;;;17.05;;
66751;SDS011;53663;42.676;23.238;2024-01-15T12:02:16;43.97;;;19.48;;
66751;SDS011;53663;42.676;23.238;2024-01-15T12:04:42;40.17;;;19.67;;
66751;SDS011;53663;42.676;23.238;2024-01-15T12:07:07;39.03;;;19.08;;
66751;SDS011;53663;42.676;23.238;2024-01-15T12:09:33;33.80;;;18.80;;
66751;SDS011;53663;42.676;23.238;2024-01-15T12:12:02;42.88;;;22.23;;
66751;SDS011;53663;42.676;23.238;2024-01-15T12:14:32;33.30;;;16.88;;
66751;SDS011;53663;42.676;23.238;2024-01-15T12:16:57;39.17;;;17.75;;
66751;SDS011;53663;42.676;23.238;2024-01-15T12:19:23;44.90;;;19.38;;
66751;SDS011;53663;42.676;23.238;2024-01-15T12:21:50;35.95;;;17.08;;
66751;SDS011;53663;42.676;23.238;2024-01-15T12:24:16;30.27;;;16.05;;
66751;SDS011;53663;42.676;23.238;2024-01-15T12:26:42;38.83;;;18.00;;
66751;SDS011;53663;42.676;23.238;2024-01-15T12:29:08;40.15;;;17.60;;
66751;SDS011;53663;42.676;23.238;2024-01-15T12:31:36;42.78;;;17.38;;
66751;SDS011;53663;42.676;23.238;2024-01-15T12:34:01;31.10;;;16.90;;
66751;SDS011;53663;42.676;23.238;2024-01-15T12:36:30;41.08;;;17.60;;
66751;SDS011;53663;42.676;23.238;2024-01-15T12:39:00;30.23;;;16.17;;
66751;SDS011;53663;42.676;23.238;2024-01-15T12:41:26;35.50;;;16.73;;
66751;SDS011;53663;42.676;23.238;2024-01-15T12:43:51;58.92;;;29.13;;
66751;SDS011;53663;42.676;23.238;2024-01-15T12:46:17;44.83;;;21.73;;
66751;SDS011;53663;42.676;23.238;2024-01-15T12:48:44;36.83;;;16.48;;
66751;SDS011;53663;42.676;23.238;2024-01-15T12:51:10;37.20;;;17.58;;
66751;SDS011;53663;42.676;23.238;2024-01-15T12:53:35;39.42;;;20.02;;
66751;SDS011;53663;42.676;23.238;2024-01-15T12:56:01;34.75;;;16.05;;
66751;SDS011;53663;42.676;23.238;2024-01-15T12:58:26;48.67;;;20.45;;
66751;SDS011;53663;42.676;23.238;2024-01-15T13:00:52;46.53;;;22.50;;
66751;SDS011;53663;42.676;23.238;2024-01-15T13:03:17;48.67;;;17.40;;
66751;SDS011;53663;42.676;23.238;2024-01-15T13:05:43;34.83;;;16.20;;
66751;SDS011;53663;42.676;23.238;2024-01-15T13:08:10;41.58;;;18.63;;
66751;SDS011;53663;42.676;23.238;2024-01-15T13:10:35;37.97;;;17.83;;
66751;SDS011;53663;42.676;23.238;2024-01-15T13:13:01;40.13;;;19.42;;
66751;SDS011;53663;42.676;23.238;2024-01-15T13:15:26;42.33;;;18.95;;
66751;SDS011;53663;42.676;23.238;2024-01-15T13:17:52;37.22;;;16.80;;
66751;SDS011;53663;42.676;23.238;2024-01-15T13:20:17;44.88;;;17.80;;
66751;SDS011;53663;42.676;23.238;2024-01-15T13:22:43;73.07;;;29.95;;
66751;SDS011;53663;42.676;23.238;2024-01-15T13:25:09;39.92;;;19.00;;
66751;SDS011;53663;42.676;23.238;2024-01-15T13:27:36;45.70;;;20.30;;
66751;SDS011;53663;42.676;23.238;2024-01-15T13:30:02;44.92;;;21.45;;
66751;SDS011;53663;42.676;23.238;2024-01-15T13:32:29;41.13;;;19.48;;
66751;SDS011;53663;42.676;23.238;2024-01-15T13:34:55;38.85;;;19.55;;
66751;SDS011;53663;42.676;23.238;2024-01-15T13:37:21;47.80;;;22.35;;
66751;SDS011;53663;42.676;23.238;2024-01-15T13:39:49;35.88;;;18.17;;
66751;SDS011;53663;42.676;23.238;2024-01-15T13:42:17;37.45;;;18.73;;
66751;SDS011;53663;42.676;23.238;2024-01-15T13:44:42;39.13;;;17.25;;
66751;SDS011;53663;42.676;23.238;2024-01-15T13:47:08;38.35;;;18.13;;
66751;SDS011;53663;42.676;23.238;2024-01-15T13:49:34;49.65;;;20.23;;
66751;SDS011;53663;42.676;23.238;2024-01-15T13:52:01;48.65;;;20.55;;
66751;SDS011;53663;42.676;23.238;2024-01-15T13:54:29;51.78;;;20.85;;
66751;SDS011;53663;42.676;23.238;2024-01-15T13:56:55;40.17;;;18.83;;
66751;SDS011;53663;42.676;23.238;2024-01-15T13:59:21;48.30;;;17.92;;
66751;SDS011;53663;42.676;23.238;2024-01-15T14:01:46;40.70;;;17.95;;
66751;SDS011;53663;42.676;23.238;2024-01-15T14:04:12;47.10;;;19.00;;
66751;SDS011;53663;42.676;23.238;2024-01-15T14:06:38;43.38;;;19.88;;
66751;SDS011;53663;42.676;23.238;2024-01-15T14:09:04;34.58;;;17.98;;
66751;SDS011;53663;42.676;23.238;2024-01-15T14:11:30;33.17;;;16.38;;